Afrodite — CURM3 — position and weather

sailwx.info

Track history (hours):
 
Tides and Currents Weather Stations Pressure Air Temp Water Temp Dewpoint Dewpoint Depression Visibility Wind Speed Wind Dir Waves Ship Positions

Afrodite

Last reported at 2015-Aug-26 18:08 UTC. Time now 2015-Aug-31 00:39 UTC.
Position N 39°28' W 009°20'.

Length 26 m.

Type: Fishing. MMSI: 263500170.

Date/timePositionNaut miles runAvg speedWind from/ knotsBaromVisibWave heightAir tempDewpointWater temp
2015-Aug-26 18:08N 39°28' W 009°20'7 8.8
2015-Aug-26 17:23N 39°22' W 009°24'2 2.6
2015-Aug-26 16:33N 39°21' W 009°22'0 0.0
2015-Aug-26 15:33N 39°21' W 009°22'0 0.0
2015-Aug-26 14:04N 39°21' W 009°22'  
2015-Aug-21 23:06N 39°21' W 009°22'0 0.0
2015-Aug-21 22:33N 39°21' W 009°22'6 6.0
2015-Aug-21 21:33N 39°15' W 009°23'2 1.9
2015-Aug-21 20:33N 39°14' W 009°23'3 3.4
2015-Aug-21 19:33N 39°17' W 009°23'4 4.1
2015-Aug-21 18:27N 39°21' W 009°22'0 0.0
2015-Aug-21 17:33N 39°21' W 009°22'0 0.0
2015-Aug-21 16:33N 39°21' W 009°22'0 0.0
2015-Aug-21 15:33N 39°21' W 009°22'0 0.0
2015-Aug-20 23:26N 39°21' W 009°22'0 0.0
2015-Aug-20 22:33N 39°21' W 009°22'2 1.7
2015-Aug-20 21:33N 39°20' W 009°23'5 5.2
2015-Aug-20 20:33N 39°15' W 009°23'2 1.6
2015-Aug-20 19:32N 39°16' W 009°23'4 1.0
2015-Aug-20 15:33N 39°20' W 009°24'7 6.6
2015-Aug-20 14:33N 39°14' W 009°27'2 2.1
2015-Aug-20 13:33N 39°12' W 009°25'9 4.6
2015-Aug-20 11:32N 39°21' W 009°22'  
2015-Aug-17 21:08N 39°20' W 009°25'1 0.8
2015-Aug-17 20:30N 39°20' W 009°26'0 0.3
2015-Aug-17 19:29N 39°20' W 009°26'3 3.1
2015-Aug-17 18:29N 39°21' W 009°22'0 0.0
2015-Aug-17 17:33N 39°21' W 009°22'8 8.0
2015-Aug-17 16:34N 39°14' W 009°24'1 1.0
2015-Aug-17 15:33N 39°13' W 009°25'1 0.5
2015-Aug-17 14:32N 39°13' W 009°25'2 2.2
2015-Aug-17 13:33N 39°15' W 009°26'8 3.5
2015-Aug-17 11:22N 39°21' W 009°22'  
Track history (hours):
 
Tides and Currents Weather Stations Pressure Air Temp Water Temp Dewpoint Dewpoint Depression Visibility Wind Speed Wind Dir Waves Ship Positions

Afrodite

Last reported at 2015-Aug-26 18:08 UTC. Time now 2015-Aug-31 00:39 UTC.
Position N 39°28' W 009°20'.

Length 26 m.

Type: Fishing. MMSI: 263500170.

Date/timePositionNaut miles runAvg speedWind from/ knotsBaromVisibWave heightAir tempDewpointWater temp
2015-Aug-26 18:08N 39°28' W 009°20'7 8.8
2015-Aug-26 17:23N 39°22' W 009°24'2 2.6
2015-Aug-26 16:33N 39°21' W 009°22'0 0.0
2015-Aug-26 15:33N 39°21' W 009°22'0 0.0
2015-Aug-26 14:04N 39°21' W 009°22'  
2015-Aug-21 23:06N 39°21' W 009°22'0 0.0
2015-Aug-21 22:33N 39°21' W 009°22'6 6.0
2015-Aug-21 21:33N 39°15' W 009°23'2 1.9
2015-Aug-21 20:33N 39°14' W 009°23'3 3.4
2015-Aug-21 19:33N 39°17' W 009°23'4 4.1
2015-Aug-21 18:27N 39°21' W 009°22'0 0.0
2015-Aug-21 17:33N 39°21' W 009°22'0 0.0
2015-Aug-21 16:33N 39°21' W 009°22'0 0.0
2015-Aug-21 15:33N 39°21' W 009°22'0 0.0
2015-Aug-20 23:26N 39°21' W 009°22'0 0.0
2015-Aug-20 22:33N 39°21' W 009°22'2 1.7
2015-Aug-20 21:33N 39°20' W 009°23'5 5.2
2015-Aug-20 20:33N 39°15' W 009°23'2 1.6
2015-Aug-20 19:32N 39°16' W 009°23'4 1.0
2015-Aug-20 15:33N 39°20' W 009°24'7 6.6
2015-Aug-20 14:33N 39°14' W 009°27'2 2.1
2015-Aug-20 13:33N 39°12' W 009°25'9 4.6
2015-Aug-20 11:32N 39°21' W 009°22'  
2015-Aug-17 21:08N 39°20' W 009°25'1 0.8
2015-Aug-17 20:30N 39°20' W 009°26'0 0.3
2015-Aug-17 19:29N 39°20' W 009°26'3 3.1
2015-Aug-17 18:29N 39°21' W 009°22'0 0.0
2015-Aug-17 17:33N 39°21' W 009°22'8 8.0
2015-Aug-17 16:34N 39°14' W 009°24'1 1.0
2015-Aug-17 15:33N 39°13' W 009°25'1 0.5
2015-Aug-17 14:32N 39°13' W 009°25'2 2.2
2015-Aug-17 13:33N 39°15' W 009°26'8 3.5
2015-Aug-17 11:22N 39°21' W 009°22'  

Dump ship's entire track history